Elmsford, New York
Current Conditions -  °F | °C
As of 7:56 AM on Wednesday 26 Nov 2014 (Local Time) from KHPN Reporting Station
Moderate Rain Moderate Rain  
Wind Chill: 30°   Ceiling: 2500
Heat Index: 37°   Visibility: 6mi
Dew Point: 32°   Wind: 10mph
Humidity: 82%   Direction: 10°N
Pressure: 30.14"   Gusts: NA
Location:  41.06°N, 73.82°W
Report Text: KHPN 261256Z 01009KT 6SM RA OVC025 03/00 A3014 RMK AO2 SLP210 P0005 T00280000
Loading
Personal Weather Stations






























Interactive Weather Map New forecast layout! Learn more

10-Day Weather Forecast

Advertisements
Track Severe Weather on mobile